createdAt,value
2022-09-12T00:00:50.370Z,14.53
2022-09-12T00:03:16.862Z,13.10
2022-09-12T00:05:44.854Z,15.10
2022-09-12T00:08:11.852Z,14.10
2022-09-12T00:10:40.817Z,15.57
2022-09-12T00:13:08.342Z,13.50
2022-09-12T00:15:39.264Z,15.23
2022-09-12T00:18:06.374Z,15.80
2022-09-12T00:20:32.723Z,15.27
2022-09-12T00:22:59.100Z,16.77
2022-09-12T00:25:25.452Z,12.87
2022-09-12T00:27:51.842Z,16.23
2022-09-12T00:30:18.213Z,15.10
2022-09-12T00:32:45.020Z,15.37
2022-09-12T00:35:11.502Z,17.43
2022-09-12T00:37:38.026Z,13.20
2022-09-12T00:40:04.798Z,14.03
2022-09-12T00:42:31.207Z,13.50
2022-09-12T00:44:57.581Z,14.53
2022-09-12T00:47:27.651Z,14.33
2022-09-12T00:50:13.582Z,13.90
2022-09-12T00:52:54.283Z,14.60
2022-09-12T00:55:29.954Z,13.10
2022-09-12T00:58:14.365Z,18.83
2022-09-12T01:00:41.140Z,16.60
2022-09-12T01:03:11.127Z,13.90
2022-09-12T01:05:44.222Z,14.87
2022-09-12T01:08:11.278Z,14.97
2022-09-12T01:10:39.890Z,16.87
2022-09-12T01:13:11.036Z,14.37
2022-09-12T01:15:38.950Z,13.93
2022-09-12T01:18:17.243Z,16.43
2022-09-12T01:20:46.403Z,13.13
2022-09-12T01:24:01.706Z,16.50
2022-09-12T01:26:27.980Z,15.53
2022-09-12T01:29:31.647Z,14.87
2022-09-12T01:32:16.888Z,16.83
2022-09-12T01:35:04.498Z,16.10
2022-09-12T01:38:03.480Z,19.07
2022-09-12T01:40:49.085Z,18.03
2022-09-12T01:43:26.724Z,21.27
2022-09-12T01:46:03.149Z,21.10
2022-09-12T01:48:37.219Z,20.10
2022-09-12T01:51:10.403Z,24.37
2022-09-12T01:53:42.375Z,21.43
2022-09-12T01:56:14.511Z,19.63
2022-09-12T01:58:47.482Z,20.13
2022-09-12T02:01:23.031Z,20.03
2022-09-12T02:03:56.861Z,22.50
2022-09-12T02:06:31.911Z,22.67
2022-09-12T02:09:06.439Z,19.10
2022-09-12T02:11:35.503Z,22.40
2022-09-12T02:14:09.715Z,18.27
2022-09-12T02:16:39.574Z,18.70
2022-09-12T02:19:12.662Z,22.30
2022-09-12T02:21:42.174Z,19.13
2022-09-12T02:24:13.317Z,20.37
2022-09-12T02:26:47.273Z,23.37
2022-09-12T02:29:13.708Z,20.93
2022-09-12T02:31:47.340Z,21.07
2022-09-12T02:34:35.325Z,22.90
2022-09-12T02:37:18.609Z,21.13
2022-09-12T02:39:45.607Z,23.40
2022-09-12T02:42:13.296Z,24.43
2022-09-12T02:44:40.159Z,25.43
2022-09-12T02:47:36.596Z,25.60
2022-09-12T02:50:05.425Z,27.77
2022-09-12T02:52:32.188Z,26.17
2022-09-12T02:54:59.454Z,24.50
2022-09-12T02:57:25.923Z,27.90
2022-09-12T02:59:57.187Z,25.00
2022-09-12T03:02:45.542Z,23.67
2022-09-12T03:05:20.689Z,25.27
2022-09-12T03:08:05.727Z,25.60
2022-09-12T03:10:42.554Z,25.53
2022-09-12T03:13:22.796Z,22.87
2022-09-12T03:15:52.153Z,24.17
2022-09-12T03:18:40.490Z,22.07
2022-09-12T03:21:09.881Z,26.37
2022-09-12T03:23:50.580Z,23.90
2022-09-12T03:26:28.731Z,26.30
2022-09-12T03:28:56.741Z,25.77
2022-09-12T03:31:23.148Z,27.20
2022-09-12T03:33:49.518Z,30.63
2022-09-12T03:36:20.493Z,27.83
2022-09-12T03:38:46.978Z,30.23
2022-09-12T03:41:13.486Z,34.03
2022-09-12T03:43:40.353Z,30.57
2022-09-12T03:46:06.805Z,29.07
2022-09-12T03:48:33.216Z,34.47
2022-09-12T03:51:04.206Z,33.17
2022-09-12T03:53:30.749Z,32.30
2022-09-12T03:55:58.213Z,33.17
2022-09-12T03:58:29.217Z,34.33
2022-09-12T04:00:55.643Z,33.17
2022-09-12T04:03:22.021Z,29.70
2022-09-12T04:05:48.523Z,31.40
2022-09-12T04:08:15.020Z,35.33
2022-09-12T04:10:41.503Z,33.50
2022-09-12T04:13:08.115Z,34.03
2022-09-12T04:15:34.536Z,34.83
2022-09-12T04:18:05.545Z,38.70
2022-09-12T04:20:32.435Z,35.40
2022-09-12T04:22:58.776Z,34.20
2022-09-12T04:25:25.249Z,35.67
2022-09-12T04:27:51.632Z,36.93
2022-09-12T04:30:18.159Z,35.83
2022-09-12T04:32:44.609Z,37.50
2022-09-12T04:35:12.266Z,38.87
2022-09-12T04:37:41.390Z,39.93
2022-09-12T04:40:08.421Z,35.63
2022-09-12T04:42:34.866Z,41.70
2022-09-12T04:45:01.265Z,39.30
2022-09-12T04:47:28.320Z,43.33
2022-09-12T04:49:55.441Z,41.67
2022-09-12T04:52:21.845Z,42.13
2022-09-12T04:54:48.320Z,38.77
2022-09-12T04:57:14.714Z,40.03
2022-09-12T04:59:41.225Z,40.07
2022-09-12T05:02:07.652Z,36.50
2022-09-12T05:04:34.874Z,33.53
2022-09-12T05:07:01.478Z,37.13
2022-09-12T05:09:27.798Z,36.73
2022-09-12T05:12:09.455Z,37.00
2022-09-12T05:14:35.846Z,39.00
2022-09-12T05:17:03.766Z,36.30
2022-09-12T05:19:30.933Z,41.77
2022-09-12T05:21:58.116Z,37.67
2022-09-12T05:24:24.737Z,38.80
2022-09-12T05:26:51.443Z,38.07
2022-09-12T05:29:17.904Z,37.93
2022-09-12T05:31:44.401Z,40.50
2022-09-12T05:34:11.162Z,37.03
2022-09-12T05:36:38.389Z,41.97
2022-09-12T05:39:04.898Z,37.63
2022-09-12T05:41:33.451Z,38.60
2022-09-12T05:44:01.780Z,38.13
2022-09-12T05:46:30.238Z,36.80
2022-09-12T05:48:58.257Z,40.17
2022-09-12T05:51:28.045Z,35.60
2022-09-12T05:53:59.911Z,36.87
2022-09-12T05:56:28.843Z,39.57
2022-09-12T05:59:02.587Z,41.27
2022-09-12T06:01:30.377Z,33.73
2022-09-12T06:04:00.734Z,38.70
2022-09-12T06:06:29.021Z,34.83
2022-09-12T06:09:01.100Z,35.90
2022-09-12T06:11:30.275Z,39.17
2022-09-12T06:13:58.235Z,34.97
2022-09-12T06:16:27.839Z,38.57
2022-09-12T06:18:56.125Z,40.77
2022-09-12T06:21:23.894Z,38.83
2022-09-12T06:23:50.615Z,36.03
2022-09-12T06:26:21.414Z,35.17
2022-09-12T06:28:47.895Z,38.30
2022-09-12T06:31:20.516Z,33.20
2022-09-12T06:33:50.087Z,35.43
2022-09-12T06:36:17.852Z,36.90
2022-09-12T06:38:46.310Z,35.10
2022-09-12T06:41:13.242Z,36.30
2022-09-12T06:43:41.041Z,36.40
2022-09-12T06:46:08.179Z,34.33
2022-09-12T06:48:37.386Z,37.83
2022-09-12T06:51:11.419Z,37.73
2022-09-12T06:53:38.127Z,34.77
2022-09-12T06:56:14.584Z,34.03
2022-09-12T06:58:42.624Z,35.63
2022-09-12T07:01:13.212Z,35.33
2022-09-12T07:03:40.510Z,37.27
2022-09-12T07:06:09.753Z,34.10
2022-09-12T07:08:37.551Z,33.73
2022-09-12T07:11:16.196Z,33.07
2022-09-12T07:13:44.744Z,35.67
2022-09-12T07:16:17.318Z,29.80
2022-09-12T07:18:51.108Z,31.83
2022-09-12T07:21:17.461Z,31.70
2022-09-12T07:23:44.844Z,29.27
2022-09-12T07:26:12.621Z,33.57
2022-09-12T07:28:40.044Z,33.13
2022-09-12T07:31:11.847Z,33.07
2022-09-12T07:33:38.659Z,35.73
2022-09-12T07:36:13.790Z,31.77
2022-09-12T07:38:41.074Z,32.23
2022-09-12T07:41:17.489Z,30.30
2022-09-12T07:43:44.085Z,30.27
2022-09-12T07:46:11.431Z,29.40
2022-09-12T07:48:38.961Z,28.70
2022-09-12T07:51:08.240Z,32.77
2022-09-12T07:53:37.950Z,29.20
2022-09-12T07:56:05.853Z,30.33
2022-09-12T07:58:34.786Z,28.23
2022-09-12T08:01:09.368Z,26.23
2022-09-12T08:03:36.731Z,29.83
2022-09-12T08:06:08.455Z,30.57
2022-09-12T08:08:35.465Z,24.77
2022-09-12T08:11:05.940Z,23.73
2022-09-12T08:13:33.753Z,23.60
2022-09-12T08:16:02.695Z,26.07
2022-09-12T08:18:30.372Z,27.30
2022-09-12T08:21:01.528Z,25.00
2022-09-12T08:23:29.239Z,27.57
2022-09-12T08:25:57.160Z,27.57
2022-09-12T08:28:25.267Z,25.30
2022-09-12T08:30:53.046Z,27.53
2022-09-12T08:33:19.827Z,22.73
2022-09-12T08:35:47.213Z,22.63
2022-09-12T08:38:13.631Z,21.23
2022-09-12T08:40:53.196Z,24.40
2022-09-12T08:43:43.749Z,22.53
2022-09-12T08:46:21.631Z,22.03
2022-09-12T08:48:48.577Z,20.43
2022-09-12T08:51:19.415Z,19.63
2022-09-12T08:53:49.381Z,18.23
2022-09-12T08:56:16.745Z,22.07
2022-09-12T08:58:44.971Z,22.70
2022-09-12T09:01:30.659Z,18.97
2022-09-12T09:04:18.613Z,19.67
2022-09-12T09:07:17.539Z,19.17
2022-09-12T09:09:51.958Z,16.23
2022-09-12T09:12:36.342Z,19.47
2022-09-12T09:15:23.688Z,19.93
2022-09-12T09:17:54.991Z,17.43
2022-09-12T09:20:41.151Z,15.97
2022-09-12T09:23:15.295Z,16.57
2022-09-12T09:25:56.527Z,18.53
2022-09-12T09:28:35.159Z,15.77
2022-09-12T09:31:02.035Z,14.47
2022-09-12T09:33:34.742Z,15.60
2022-09-12T09:36:22.437Z,16.93
2022-09-12T09:38:55.356Z,15.40
2022-09-12T09:41:56.637Z,15.07
2022-09-12T09:44:23.501Z,15.27
2022-09-12T09:46:55.512Z,14.57
2022-09-12T09:49:22.503Z,14.50
2022-09-12T09:51:49.078Z,16.13
2022-09-12T09:54:27.932Z,15.43
2022-09-12T09:56:54.535Z,12.57
2022-09-12T09:59:32.183Z,14.10
2022-09-12T10:02:18.554Z,11.40
2022-09-12T10:04:57.536Z,11.87
2022-09-12T10:07:25.969Z,11.17
2022-09-12T10:10:07.506Z,11.87
2022-09-12T10:12:33.914Z,12.70
2022-09-12T10:15:04.432Z,10.77
2022-09-12T10:17:43.943Z,10.37
2022-09-12T10:20:30.416Z,12.20
2022-09-12T10:22:59.895Z,10.93
2022-09-12T10:25:27.652Z,9.77
2022-09-12T10:27:57.646Z,12.50
2022-09-12T10:30:25.848Z,11.50
2022-09-12T10:32:54.130Z,8.30
2022-09-12T10:35:24.740Z,7.17
2022-09-12T10:38:00.655Z,9.27
2022-09-12T10:40:31.650Z,11.47
2022-09-12T10:43:05.388Z,10.20
2022-09-12T10:45:33.251Z,7.57
2022-09-12T10:48:06.794Z,8.53
2022-09-12T10:50:42.293Z,5.57
2022-09-12T10:53:22.281Z,4.87
2022-09-12T10:56:12.280Z,7.77
2022-09-12T10:59:20.528Z,5.63
2022-09-12T11:01:50.658Z,6.60
2022-09-12T11:04:33.790Z,6.43
2022-09-12T11:07:18.508Z,6.13
2022-09-12T11:10:00.516Z,6.33
2022-09-12T11:12:33.859Z,6.37
2022-09-12T11:15:17.061Z,5.43
2022-09-12T11:18:25.034Z,7.00
2022-09-12T11:21:11.489Z,6.17
2022-09-12T11:24:15.373Z,5.60
2022-09-12T11:27:00.849Z,6.60
2022-09-12T11:29:35.935Z,9.77
2022-09-12T11:32:27.096Z,6.33
2022-09-12T11:35:27.573Z,7.17
2022-09-12T11:38:07.272Z,7.70
2022-09-12T11:40:44.610Z,6.10
2022-09-12T11:43:39.740Z,6.30
2022-09-12T11:46:15.265Z,5.70
2022-09-12T11:48:55.060Z,5.17
2022-09-12T11:51:27.804Z,4.87
2022-09-12T11:54:02.664Z,5.33
2022-09-12T11:56:29.064Z,6.03
2022-09-12T11:59:04.539Z,7.33
2022-09-12T12:01:43.948Z,6.93
2022-09-12T12:04:18.760Z,6.37
2022-09-12T12:07:15.328Z,6.07
2022-09-12T12:09:52.670Z,4.27
2022-09-12T12:12:24.781Z,4.57
2022-09-12T12:14:54.772Z,7.67
2022-09-12T12:17:24.049Z,5.30
2022-09-12T12:20:07.499Z,4.80
2022-09-12T12:22:34.837Z,4.27
2022-09-12T12:25:07.439Z,3.90
2022-09-12T12:27:54.157Z,3.87
2022-09-12T12:30:29.531Z,3.73
2022-09-12T12:33:12.974Z,3.87
2022-09-12T12:35:46.721Z,2.90
2022-09-12T12:38:34.125Z,3.70
2022-09-12T12:41:18.489Z,3.53
2022-09-12T12:43:46.424Z,3.50
2022-09-12T12:46:17.511Z,2.83
2022-09-12T12:49:09.646Z,3.33
2022-09-12T12:51:38.847Z,5.77
2022-09-12T12:54:31.043Z,3.80
2022-09-12T12:57:08.524Z,4.63
2022-09-12T12:59:34.932Z,4.13
2022-09-12T13:02:01.764Z,3.43
2022-09-12T13:04:32.353Z,6.40
2022-09-12T13:07:08.712Z,3.80
2022-09-12T13:09:45.961Z,4.30
2022-09-12T13:12:23.646Z,3.67
2022-09-12T13:14:54.394Z,3.20
2022-09-12T13:17:25.185Z,3.90
2022-09-12T13:20:16.910Z,5.03
2022-09-12T13:22:45.058Z,3.33
2022-09-12T13:25:31.711Z,3.37
2022-09-12T13:28:23.045Z,3.40
2022-09-12T13:31:03.371Z,5.50
2022-09-12T13:33:37.282Z,3.23
2022-09-12T13:36:12.835Z,3.47
2022-09-12T13:38:51.457Z,3.10
2022-09-12T13:41:51.097Z,4.67
2022-09-12T13:44:20.558Z,4.07
2022-09-12T13:46:47.610Z,3.17
2022-09-12T13:49:26.372Z,2.53
2022-09-12T13:52:03.819Z,2.73
2022-09-12T13:54:31.882Z,3.10
2022-09-12T13:56:59.682Z,4.17
2022-09-12T13:59:26.253Z,3.50
2022-09-12T14:01:52.630Z,3.30
2022-09-12T14:04:43.570Z,2.90
2022-09-12T14:07:22.150Z,2.33
2022-09-12T14:09:57.737Z,3.13
2022-09-12T14:12:43.794Z,3.30
2022-09-12T14:15:24.013Z,3.10
2022-09-12T14:17:52.802Z,3.60
2022-09-12T14:20:22.337Z,3.87
2022-09-12T14:22:51.305Z,3.40
2022-09-12T14:25:20.500Z,2.80
2022-09-12T14:27:55.527Z,3.90
2022-09-12T14:30:26.027Z,3.27
2022-09-12T14:33:10.743Z,3.67
2022-09-12T14:35:50.870Z,3.53
2022-09-12T14:38:17.205Z,2.77
2022-09-12T14:40:46.297Z,2.93
2022-09-12T14:43:34.017Z,2.90
2022-09-12T14:46:03.744Z,2.87
2022-09-12T14:48:37.559Z,2.70
2022-09-12T14:51:05.294Z,4.67
2022-09-12T14:53:36.589Z,3.27
2022-09-12T14:56:08.049Z,3.40
2022-09-12T14:58:35.323Z,2.83
2022-09-12T15:01:22.492Z,2.77
2022-09-12T15:03:53.206Z,4.23
2022-09-12T15:06:31.299Z,3.63
2022-09-12T15:09:00.784Z,3.20
2022-09-12T15:11:27.486Z,2.80
2022-09-12T15:13:54.019Z,3.90
2022-09-12T15:16:20.639Z,3.10
2022-09-12T15:18:46.987Z,3.03
2022-09-12T15:21:18.580Z,3.90
2022-09-12T15:23:49.439Z,4.60
2022-09-12T15:26:21.966Z,5.17
2022-09-12T15:28:48.705Z,4.00
2022-09-12T15:31:30.276Z,3.20
2022-09-12T15:33:59.504Z,5.03
2022-09-12T15:36:28.791Z,2.70
2022-09-12T15:38:55.900Z,3.77
2022-09-12T15:41:34.126Z,3.00
2022-09-12T15:44:01.115Z,2.90
2022-09-12T15:46:27.494Z,3.40
2022-09-12T15:48:53.943Z,3.60
2022-09-12T15:51:21.983Z,3.00
2022-09-12T15:53:50.017Z,3.40
2022-09-12T15:56:18.211Z,2.77
2022-09-12T15:58:57.843Z,3.00
2022-09-12T16:01:26.217Z,3.57
2022-09-12T16:03:52.662Z,2.83
2022-09-12T16:06:19.022Z,3.00
2022-09-12T16:08:46.172Z,3.63
2022-09-12T16:11:19.555Z,2.63
2022-09-12T16:13:46.056Z,2.83
2022-09-12T16:16:12.621Z,2.60
2022-09-12T16:18:40.594Z,3.90
2022-09-12T16:21:10.128Z,2.70
2022-09-12T16:23:42.993Z,5.90
2022-09-12T16:26:09.492Z,2.43
2022-09-12T16:28:35.881Z,2.57
2022-09-12T16:31:04.799Z,2.60
2022-09-12T16:33:31.970Z,3.27
2022-09-12T16:36:09.227Z,4.00
2022-09-12T16:38:41.136Z,3.23
2022-09-12T16:41:07.776Z,3.17
2022-09-12T16:43:35.368Z,2.37
2022-09-12T16:46:06.182Z,2.40
2022-09-12T16:48:33.645Z,2.63
2022-09-12T16:51:01.980Z,2.60
2022-09-12T16:53:33.051Z,2.67
2022-09-12T16:55:59.968Z,2.63
2022-09-12T16:58:26.860Z,2.47
2022-09-12T17:01:05.121Z,3.37
2022-09-12T17:03:31.598Z,2.10
2022-09-12T17:06:03.841Z,4.27
2022-09-12T17:08:30.941Z,2.63
2022-09-12T17:11:07.284Z,3.13
2022-09-12T17:14:00.225Z,2.40
2022-09-12T17:16:21.271Z,2.90
2022-09-12T17:18:48.192Z,2.43
2022-09-12T17:21:15.273Z,2.67
2022-09-12T17:23:42.356Z,3.00
2022-09-12T17:26:10.152Z,2.47
2022-09-12T17:28:38.332Z,3.07
2022-09-12T17:31:07.585Z,4.13
2022-09-12T17:33:34.107Z,3.23
2022-09-12T17:36:02.471Z,2.17
2022-09-12T17:38:32.263Z,5.03
2022-09-12T17:41:07.158Z,4.93
2022-09-12T17:43:33.671Z,4.23
2022-09-12T17:46:00.398Z,3.07
2022-09-12T17:48:26.834Z,3.20
2022-09-12T17:50:53.371Z,2.97
2022-09-12T17:53:19.861Z,2.57
2022-09-12T17:55:46.284Z,4.13
2022-09-12T17:58:12.702Z,4.43
2022-09-12T18:00:57.544Z,3.03
2022-09-12T18:03:24.425Z,2.50
2022-09-12T18:05:55.911Z,3.80
2022-09-12T18:08:23.723Z,4.40
2022-09-12T18:10:51.081Z,3.90
2022-09-12T18:13:18.064Z,4.30
2022-09-12T18:15:44.505Z,3.00
2022-09-12T18:18:10.911Z,3.50
2022-09-12T18:20:37.330Z,3.37
2022-09-12T18:23:04.476Z,2.27
2022-09-12T18:25:30.843Z,4.87
2022-09-12T18:27:57.191Z,2.73
2022-09-12T18:30:23.661Z,3.23
2022-09-12T18:32:50.482Z,4.67
2022-09-12T18:35:17.273Z,2.43
2022-09-12T18:37:43.970Z,4.37
2022-09-12T18:40:10.844Z,3.23
2022-09-12T18:42:37.236Z,3.17
2022-09-12T18:45:04.067Z,3.00
2022-09-12T18:47:30.490Z,2.40
2022-09-12T18:49:56.875Z,3.53
2022-09-12T18:52:23.256Z,2.83
2022-09-12T18:54:49.793Z,3.47
2022-09-12T18:57:16.224Z,3.37
2022-09-12T18:59:42.636Z,2.80
2022-09-12T19:02:15.599Z,2.63
2022-09-12T19:04:41.986Z,3.13
2022-09-12T19:07:08.558Z,4.33
2022-09-12T19:09:34.973Z,3.60
2022-09-12T19:12:01.479Z,4.50
2022-09-12T19:14:27.966Z,5.47
2022-09-12T19:16:54.453Z,3.03
2022-09-12T19:19:21.269Z,7.37
2022-09-12T19:21:47.779Z,4.43
2022-09-12T19:24:14.725Z,2.50
2022-09-12T19:26:41.588Z,3.00
2022-09-12T19:29:08.404Z,5.07
2022-09-12T19:31:35.219Z,6.70
2022-09-12T19:34:04.563Z,3.10
2022-09-12T19:36:45.033Z,4.47
2022-09-12T19:39:12.932Z,3.47
2022-09-12T19:41:39.517Z,3.73
2022-09-12T19:44:06.335Z,4.57
2022-09-12T19:46:32.930Z,3.97
2022-09-12T19:48:59.364Z,3.67
2022-09-12T19:51:25.839Z,4.93
2022-09-12T19:53:53.028Z,6.47
2022-09-12T19:56:19.886Z,6.13
2022-09-12T19:58:49.957Z,5.03
2022-09-12T20:01:24.777Z,5.63
2022-09-12T20:03:54.520Z,3.17
2022-09-12T20:06:20.938Z,5.97
2022-09-12T20:08:47.380Z,4.97
2022-09-12T20:11:17.327Z,5.13
2022-09-12T20:13:44.695Z,4.77
2022-09-12T20:16:19.006Z,5.30
2022-09-12T20:18:49.317Z,6.40
2022-09-12T20:21:21.791Z,4.63
2022-09-12T20:23:48.167Z,4.83
2022-09-12T20:26:14.539Z,4.10
2022-09-12T20:28:41.546Z,4.93
2022-09-12T20:31:11.640Z,3.30
2022-09-12T20:33:38.309Z,4.33
2022-09-12T20:36:09.984Z,3.97
2022-09-12T20:38:36.519Z,3.13
2022-09-12T20:41:04.901Z,3.40
2022-09-12T20:43:31.381Z,4.33
2022-09-12T20:45:57.935Z,3.13
2022-09-12T20:48:24.815Z,5.40
2022-09-12T20:50:51.268Z,2.90
2022-09-12T20:53:17.625Z,2.80
2022-09-12T20:55:51.487Z,5.97
2022-09-12T20:58:19.215Z,5.10
2022-09-12T21:00:46.239Z,3.97
2022-09-12T21:03:13.354Z,4.93
2022-09-12T21:05:39.920Z,3.07
2022-09-12T21:08:06.793Z,5.00
2022-09-12T21:10:33.261Z,4.50
2022-09-12T21:12:59.703Z,5.33
2022-09-12T21:17:52.939Z,3.60
2022-09-12T21:20:19.554Z,4.47
2022-09-12T21:22:45.960Z,5.80
2022-09-12T21:25:12.688Z,7.30
2022-09-12T21:27:39.132Z,6.20
2022-09-12T21:30:06.047Z,5.83
2022-09-12T21:32:35.882Z,5.47
2022-09-12T21:35:04.217Z,10.47
2022-09-12T21:37:30.757Z,6.33
2022-09-12T21:39:58.953Z,5.73
2022-09-12T21:42:25.777Z,8.73
2022-09-12T21:44:52.285Z,5.53
2022-09-12T21:47:18.716Z,5.77
2022-09-12T21:49:45.109Z,7.37
2022-09-12T21:52:14.904Z,8.37
2022-09-12T21:54:41.246Z,7.10
2022-09-12T21:57:07.919Z,7.33
2022-09-12T21:59:34.285Z,7.27
2022-09-12T22:02:00.687Z,6.97
2022-09-12T22:04:27.135Z,6.20
2022-09-12T22:06:53.489Z,8.57
2022-09-12T22:09:19.858Z,8.37
2022-09-12T22:11:46.856Z,6.93
2022-09-12T22:14:13.282Z,9.97
2022-09-12T22:16:40.432Z,6.53
2022-09-12T22:19:06.845Z,7.03
2022-09-12T22:21:33.204Z,7.63
2022-09-12T22:24:18.028Z,7.63
2022-09-12T22:26:46.270Z,8.50
2022-09-12T22:29:15.965Z,6.30
2022-09-12T22:31:42.885Z,7.87
2022-09-12T22:34:09.334Z,6.67
2022-09-12T22:36:38.762Z,7.00
2022-09-12T22:39:06.126Z,7.60
2022-09-12T22:41:32.496Z,7.47
2022-09-12T22:43:58.875Z,7.27
2022-09-12T22:46:25.741Z,9.47
2022-09-12T22:48:52.246Z,7.43
2022-09-12T22:51:19.022Z,7.93
2022-09-12T22:53:45.372Z,7.03
2022-09-12T22:56:11.798Z,10.17
2022-09-12T22:58:38.481Z,8.27
2022-09-12T23:01:06.331Z,9.33
2022-09-12T23:03:33.026Z,12.23
2022-09-12T23:05:59.814Z,9.33
2022-09-12T23:08:29.635Z,8.40
2022-09-12T23:11:09.503Z,8.13
2022-09-12T23:13:37.078Z,8.00
2022-09-12T23:16:06.763Z,7.13
2022-09-12T23:18:36.773Z,11.00
2022-09-12T23:21:05.995Z,9.07
2022-09-12T23:23:32.643Z,10.80
2022-09-12T23:26:06.849Z,8.63
2022-09-12T23:28:34.635Z,11.77
2022-09-12T23:31:01.526Z,11.33
2022-09-12T23:33:29.353Z,9.23
2022-09-12T23:36:03.490Z,10.53
2022-09-12T23:38:30.959Z,11.77
2022-09-12T23:40:58.089Z,10.70
2022-09-12T23:43:25.048Z,9.83
2022-09-12T23:45:51.805Z,10.60
2022-09-12T23:48:18.444Z,8.77
2022-09-12T23:50:45.972Z,10.67
2022-09-12T23:53:13.358Z,10.47
2022-09-12T23:55:40.367Z,11.53
2022-09-12T23:58:07.482Z,11.17
